sensor_id;sensor_type;location;lat;lon;timestamp;P1;durP1;ratioP1;P2;durP2;ratioP2
2538;SDS011;1280;49.760;9.664;2022-10-16T00:00:58;3.60;;;1.67;;
2538;SDS011;1280;49.760;9.664;2022-10-16T00:03:32;4.53;;;1.60;;
2538;SDS011;1280;49.760;9.664;2022-10-16T00:06:00;4.77;;;1.27;;
2538;SDS011;1280;49.760;9.664;2022-10-16T00:08:29;5.87;;;1.77;;
2538;SDS011;1280;49.760;9.664;2022-10-16T00:11:03;3.90;;;1.77;;
2538;SDS011;1280;49.760;9.664;2022-10-16T00:13:33;5.10;;;1.90;;
2538;SDS011;1280;49.760;9.664;2022-10-16T00:16:02;4.40;;;1.63;;
2538;SDS011;1280;49.760;9.664;2022-10-16T00:18:30;3.57;;;1.57;;
2538;SDS011;1280;49.760;9.664;2022-10-16T00:21:01;5.47;;;1.57;;
2538;SDS011;1280;49.760;9.664;2022-10-16T00:23:31;4.50;;;1.90;;
2538;SDS011;1280;49.760;9.664;2022-10-16T00:25:59;3.50;;;1.60;;
2538;SDS011;1280;49.760;9.664;2022-10-16T00:28:32;4.40;;;1.53;;
2538;SDS011;1280;49.760;9.664;2022-10-16T00:31:02;5.67;;;1.77;;
2538;SDS011;1280;49.760;9.664;2022-10-16T00:33:31;6.53;;;1.70;;
2538;SDS011;1280;49.760;9.664;2022-10-16T00:35:59;5.80;;;1.80;;
2538;SDS011;1280;49.760;9.664;2022-10-16T00:38:27;4.17;;;1.80;;
2538;SDS011;1280;49.760;9.664;2022-10-16T00:40:55;3.83;;;1.40;;
2538;SDS011;1280;49.760;9.664;2022-10-16T00:43:36;6.23;;;1.77;;
2538;SDS011;1280;49.760;9.664;2022-10-16T00:46:10;5.27;;;1.70;;
2538;SDS011;1280;49.760;9.664;2022-10-16T00:48:45;5.67;;;2.00;;
2538;SDS011;1280;49.760;9.664;2022-10-16T00:51:17;3.50;;;1.70;;
2538;SDS011;1280;49.760;9.664;2022-10-16T00:53:50;4.67;;;1.50;;
2538;SDS011;1280;49.760;9.664;2022-10-16T00:56:18;5.43;;;1.53;;
2538;SDS011;1280;49.760;9.664;2022-10-16T00:58:48;4.20;;;1.53;;
2538;SDS011;1280;49.760;9.664;2022-10-16T01:01:16;4.07;;;2.17;;
2538;SDS011;1280;49.760;9.664;2022-10-16T01:03:44;4.23;;;2.00;;
2538;SDS011;1280;49.760;9.664;2022-10-16T01:06:17;4.60;;;1.90;;
2538;SDS011;1280;49.760;9.664;2022-10-16T01:09:03;4.53;;;1.97;;
2538;SDS011;1280;49.760;9.664;2022-10-16T01:11:38;6.80;;;2.20;;
2538;SDS011;1280;49.760;9.664;2022-10-16T01:14:14;5.80;;;2.30;;
2538;SDS011;1280;49.760;9.664;2022-10-16T01:16:49;5.50;;;2.03;;
2538;SDS011;1280;49.760;9.664;2022-10-16T01:19:26;3.80;;;1.70;;
2538;SDS011;1280;49.760;9.664;2022-10-16T01:22:08;3.80;;;1.30;;
2538;SDS011;1280;49.760;9.664;2022-10-16T01:24:38;4.03;;;1.20;;
2538;SDS011;1280;49.760;9.664;2022-10-16T01:27:10;4.43;;;1.33;;
2538;SDS011;1280;49.760;9.664;2022-10-16T01:29:42;3.40;;;1.17;;
2538;SDS011;1280;49.760;9.664;2022-10-16T01:32:23;2.83;;;0.80;;
2538;SDS011;1280;49.760;9.664;2022-10-16T01:34:58;3.23;;;1.00;;
2538;SDS011;1280;49.760;9.664;2022-10-16T01:37:32;3.40;;;1.20;;
2538;SDS011;1280;49.760;9.664;2022-10-16T01:40:05;3.40;;;0.97;;
2538;SDS011;1280;49.760;9.664;2022-10-16T01:42:38;3.00;;;0.80;;
2538;SDS011;1280;49.760;9.664;2022-10-16T01:45:11;3.10;;;0.83;;
2538;SDS011;1280;49.760;9.664;2022-10-16T01:47:44;2.90;;;0.93;;
2538;SDS011;1280;49.760;9.664;2022-10-16T01:50:14;2.90;;;0.73;;
2538;SDS011;1280;49.760;9.664;2022-10-16T01:52:44;2.97;;;0.73;;
2538;SDS011;1280;49.760;9.664;2022-10-16T01:55:16;2.77;;;0.80;;
2538;SDS011;1280;49.760;9.664;2022-10-16T01:57:49;2.93;;;0.70;;
2538;SDS011;1280;49.760;9.664;2022-10-16T02:00:19;2.73;;;0.60;;
2538;SDS011;1280;49.760;9.664;2022-10-16T02:02:49;3.33;;;0.90;;
2538;SDS011;1280;49.760;9.664;2022-10-16T02:05:22;3.30;;;0.77;;
2538;SDS011;1280;49.760;9.664;2022-10-16T02:07:54;2.80;;;0.70;;
2538;SDS011;1280;49.760;9.664;2022-10-16T02:10:26;3.30;;;1.10;;
2538;SDS011;1280;49.760;9.664;2022-10-16T02:13:00;4.80;;;0.90;;
2538;SDS011;1280;49.760;9.664;2022-10-16T02:15:32;3.90;;;1.00;;
2538;SDS011;1280;49.760;9.664;2022-10-16T02:18:01;7.30;;;1.23;;
2538;SDS011;1280;49.760;9.664;2022-10-16T02:20:30;3.90;;;1.57;;
2538;SDS011;1280;49.760;9.664;2022-10-16T02:23:01;4.87;;;1.33;;
2538;SDS011;1280;49.760;9.664;2022-10-16T02:25:30;3.50;;;1.50;;
2538;SDS011;1280;49.760;9.664;2022-10-16T02:28:04;3.97;;;1.83;;
2538;SDS011;1280;49.760;9.664;2022-10-16T02:30:39;3.40;;;1.40;;
2538;SDS011;1280;49.760;9.664;2022-10-16T02:33:13;7.33;;;1.90;;
2538;SDS011;1280;49.760;9.664;2022-10-16T02:35:43;4.07;;;1.70;;
2538;SDS011;1280;49.760;9.664;2022-10-16T02:38:14;4.93;;;1.67;;
2538;SDS011;1280;49.760;9.664;2022-10-16T02:40:43;4.90;;;1.43;;
2538;SDS011;1280;49.760;9.664;2022-10-16T02:43:13;3.77;;;1.77;;
2538;SDS011;1280;49.760;9.664;2022-10-16T02:45:41;5.23;;;1.50;;
2538;SDS011;1280;49.760;9.664;2022-10-16T02:48:09;3.80;;;1.40;;
2538;SDS011;1280;49.760;9.664;2022-10-16T02:50:37;5.63;;;2.07;;
2538;SDS011;1280;49.760;9.664;2022-10-16T02:53:05;5.10;;;1.70;;
2538;SDS011;1280;49.760;9.664;2022-10-16T02:55:33;5.77;;;1.80;;
2538;SDS011;1280;49.760;9.664;2022-10-16T02:58:02;4.00;;;1.73;;
2538;SDS011;1280;49.760;9.664;2022-10-16T03:00:31;4.60;;;1.60;;
2538;SDS011;1280;49.760;9.664;2022-10-16T03:02:59;7.03;;;2.37;;
2538;SDS011;1280;49.760;9.664;2022-10-16T03:05:27;6.60;;;1.93;;
2538;SDS011;1280;49.760;9.664;2022-10-16T03:07:55;6.17;;;1.33;;
2538;SDS011;1280;49.760;9.664;2022-10-16T03:10:26;5.90;;;1.70;;
2538;SDS011;1280;49.760;9.664;2022-10-16T03:12:54;10.20;;;1.80;;
2538;SDS011;1280;49.760;9.664;2022-10-16T03:15:22;5.17;;;1.83;;
2538;SDS011;1280;49.760;9.664;2022-10-16T03:17:51;4.30;;;1.73;;
2538;SDS011;1280;49.760;9.664;2022-10-16T03:20:19;4.73;;;1.57;;
2538;SDS011;1280;49.760;9.664;2022-10-16T03:22:47;5.60;;;1.80;;
2538;SDS011;1280;49.760;9.664;2022-10-16T03:25:15;5.47;;;2.07;;
2538;SDS011;1280;49.760;9.664;2022-10-16T03:27:44;4.70;;;2.00;;
2538;SDS011;1280;49.760;9.664;2022-10-16T03:30:12;4.90;;;1.77;;
2538;SDS011;1280;49.760;9.664;2022-10-16T03:32:40;10.13;;;1.80;;
2538;SDS011;1280;49.760;9.664;2022-10-16T03:35:09;4.70;;;1.70;;
2538;SDS011;1280;49.760;9.664;2022-10-16T03:37:37;5.77;;;1.90;;
2538;SDS011;1280;49.760;9.664;2022-10-16T03:40:06;4.20;;;1.80;;
2538;SDS011;1280;49.760;9.664;2022-10-16T03:42:34;4.90;;;2.13;;
2538;SDS011;1280;49.760;9.664;2022-10-16T03:45:02;5.60;;;1.80;;
2538;SDS011;1280;49.760;9.664;2022-10-16T03:47:31;5.83;;;2.00;;
2538;SDS011;1280;49.760;9.664;2022-10-16T03:49:59;7.17;;;1.80;;
2538;SDS011;1280;49.760;9.664;2022-10-16T03:52:29;4.63;;;1.80;;
2538;SDS011;1280;49.760;9.664;2022-10-16T03:54:58;6.23;;;1.90;;
2538;SDS011;1280;49.760;9.664;2022-10-16T03:57:26;5.60;;;1.60;;
2538;SDS011;1280;49.760;9.664;2022-10-16T03:59:55;5.00;;;1.70;;
2538;SDS011;1280;49.760;9.664;2022-10-16T04:02:22;4.70;;;1.97;;
2538;SDS011;1280;49.760;9.664;2022-10-16T04:04:50;4.47;;;1.80;;
2538;SDS011;1280;49.760;9.664;2022-10-16T04:07:18;6.67;;;1.90;;
2538;SDS011;1280;49.760;9.664;2022-10-16T04:09:48;4.23;;;1.80;;
2538;SDS011;1280;49.760;9.664;2022-10-16T04:12:18;3.90;;;1.53;;
2538;SDS011;1280;49.760;9.664;2022-10-16T04:14:46;10.23;;;1.80;;
2538;SDS011;1280;49.760;9.664;2022-10-16T04:17:14;6.07;;;1.87;;
2538;SDS011;1280;49.760;9.664;2022-10-16T04:19:43;4.57;;;1.63;;
2538;SDS011;1280;49.760;9.664;2022-10-16T04:22:11;5.17;;;1.90;;
2538;SDS011;1280;49.760;9.664;2022-10-16T04:24:39;4.30;;;1.50;;
2538;SDS011;1280;49.760;9.664;2022-10-16T04:27:08;3.93;;;1.73;;
2538;SDS011;1280;49.760;9.664;2022-10-16T04:29:36;6.73;;;1.60;;
2538;SDS011;1280;49.760;9.664;2022-10-16T04:32:04;4.30;;;1.60;;
2538;SDS011;1280;49.760;9.664;2022-10-16T04:34:32;4.93;;;1.80;;
2538;SDS011;1280;49.760;9.664;2022-10-16T04:37:00;5.93;;;1.67;;
2538;SDS011;1280;49.760;9.664;2022-10-16T04:39:28;4.23;;;1.50;;
2538;SDS011;1280;49.760;9.664;2022-10-16T04:41:56;10.83;;;2.00;;
2538;SDS011;1280;49.760;9.664;2022-10-16T04:44:26;5.10;;;1.93;;
2538;SDS011;1280;49.760;9.664;2022-10-16T04:46:54;4.60;;;1.33;;
2538;SDS011;1280;49.760;9.664;2022-10-16T04:49:22;6.07;;;1.80;;
2538;SDS011;1280;49.760;9.664;2022-10-16T04:51:50;4.03;;;1.50;;
2538;SDS011;1280;49.760;9.664;2022-10-16T04:54:18;6.03;;;1.40;;
2538;SDS011;1280;49.760;9.664;2022-10-16T04:56:46;4.50;;;1.53;;
2538;SDS011;1280;49.760;9.664;2022-10-16T04:59:16;4.40;;;1.40;;
2538;SDS011;1280;49.760;9.664;2022-10-16T05:01:46;7.00;;;1.67;;
2538;SDS011;1280;49.760;9.664;2022-10-16T05:04:15;4.17;;;1.40;;
2538;SDS011;1280;49.760;9.664;2022-10-16T05:06:43;3.67;;;1.50;;
2538;SDS011;1280;49.760;9.664;2022-10-16T05:09:11;7.60;;;1.60;;
2538;SDS011;1280;49.760;9.664;2022-10-16T05:11:39;4.10;;;1.37;;
2538;SDS011;1280;49.760;9.664;2022-10-16T05:14:07;6.00;;;1.73;;
2538;SDS011;1280;49.760;9.664;2022-10-16T05:16:40;6.33;;;1.90;;
2538;SDS011;1280;49.760;9.664;2022-10-16T05:19:09;6.53;;;2.30;;
2538;SDS011;1280;49.760;9.664;2022-10-16T05:21:54;4.10;;;1.80;;
2538;SDS011;1280;49.760;9.664;2022-10-16T05:24:22;6.70;;;1.83;;
2538;SDS011;1280;49.760;9.664;2022-10-16T05:26:50;4.13;;;1.83;;
2538;SDS011;1280;49.760;9.664;2022-10-16T05:29:18;4.43;;;1.70;;
2538;SDS011;1280;49.760;9.664;2022-10-16T05:31:46;4.50;;;1.47;;
2538;SDS011;1280;49.760;9.664;2022-10-16T05:34:18;6.07;;;1.90;;
2538;SDS011;1280;49.760;9.664;2022-10-16T05:36:46;5.90;;;1.83;;
2538;SDS011;1280;49.760;9.664;2022-10-16T05:39:14;4.50;;;1.70;;
2538;SDS011;1280;49.760;9.664;2022-10-16T05:41:43;4.73;;;1.40;;
2538;SDS011;1280;49.760;9.664;2022-10-16T05:44:11;7.13;;;2.03;;
2538;SDS011;1280;49.760;9.664;2022-10-16T05:46:39;7.57;;;2.10;;
2538;SDS011;1280;49.760;9.664;2022-10-16T05:49:07;4.93;;;1.50;;
2538;SDS011;1280;49.760;9.664;2022-10-16T05:51:36;3.83;;;1.67;;
2538;SDS011;1280;49.760;9.664;2022-10-16T05:54:04;4.53;;;1.70;;
2538;SDS011;1280;49.760;9.664;2022-10-16T05:56:32;5.23;;;1.93;;
2538;SDS011;1280;49.760;9.664;2022-10-16T05:59:00;3.80;;;1.40;;
2538;SDS011;1280;49.760;9.664;2022-10-16T06:01:28;5.40;;;1.73;;
2538;SDS011;1280;49.760;9.664;2022-10-16T06:03:57;6.00;;;1.97;;
2538;SDS011;1280;49.760;9.664;2022-10-16T06:06:26;6.33;;;1.90;;
2538;SDS011;1280;49.760;9.664;2022-10-16T06:08:57;5.50;;;1.90;;
2538;SDS011;1280;49.760;9.664;2022-10-16T06:11:27;5.13;;;1.90;;
2538;SDS011;1280;49.760;9.664;2022-10-16T06:13:56;5.40;;;1.63;;
2538;SDS011;1280;49.760;9.664;2022-10-16T06:16:28;6.60;;;1.77;;
2538;SDS011;1280;49.760;9.664;2022-10-16T06:18:56;3.50;;;1.30;;
2538;SDS011;1280;49.760;9.664;2022-10-16T06:21:25;5.30;;;1.73;;
2538;SDS011;1280;49.760;9.664;2022-10-16T06:23:55;5.60;;;2.40;;
2538;SDS011;1280;49.760;9.664;2022-10-16T06:26:26;5.20;;;1.80;;
2538;SDS011;1280;49.760;9.664;2022-10-16T06:28:55;6.77;;;2.20;;
2538;SDS011;1280;49.760;9.664;2022-10-16T06:31:25;5.93;;;2.07;;
2538;SDS011;1280;49.760;9.664;2022-10-16T06:33:57;5.93;;;1.70;;
2538;SDS011;1280;49.760;9.664;2022-10-16T06:36:25;10.00;;;2.10;;
2538;SDS011;1280;49.760;9.664;2022-10-16T06:38:54;7.50;;;1.50;;
2538;SDS011;1280;49.760;9.664;2022-10-16T06:41:22;5.50;;;1.87;;
2538;SDS011;1280;49.760;9.664;2022-10-16T06:43:52;4.10;;;1.63;;
2538;SDS011;1280;49.760;9.664;2022-10-16T06:46:20;5.53;;;1.70;;
2538;SDS011;1280;49.760;9.664;2022-10-16T06:48:50;3.77;;;1.30;;
2538;SDS011;1280;49.760;9.664;2022-10-16T06:51:18;4.30;;;1.77;;
2538;SDS011;1280;49.760;9.664;2022-10-16T06:53:48;4.67;;;1.70;;
2538;SDS011;1280;49.760;9.664;2022-10-16T06:56:29;4.20;;;1.70;;
2538;SDS011;1280;49.760;9.664;2022-10-16T06:58:59;7.90;;;1.93;;
2538;SDS011;1280;49.760;9.664;2022-10-16T07:01:28;7.10;;;1.73;;
2538;SDS011;1280;49.760;9.664;2022-10-16T07:03:56;5.60;;;1.90;;
2538;SDS011;1280;49.760;9.664;2022-10-16T07:06:25;6.87;;;1.70;;
2538;SDS011;1280;49.760;9.664;2022-10-16T07:08:54;4.20;;;1.53;;
2538;SDS011;1280;49.760;9.664;2022-10-16T07:11:22;5.23;;;1.73;;
2538;SDS011;1280;49.760;9.664;2022-10-16T07:13:51;5.13;;;2.00;;
2538;SDS011;1280;49.760;9.664;2022-10-16T07:16:23;6.87;;;2.20;;
2538;SDS011;1280;49.760;9.664;2022-10-16T07:18:53;5.33;;;2.30;;
2538;SDS011;1280;49.760;9.664;2022-10-16T07:21:25;7.93;;;2.30;;
2538;SDS011;1280;49.760;9.664;2022-10-16T07:23:55;6.90;;;2.13;;
2538;SDS011;1280;49.760;9.664;2022-10-16T07:26:25;6.10;;;2.80;;
2538;SDS011;1280;49.760;9.664;2022-10-16T07:28:54;13.10;;;6.10;;
2538;SDS011;1280;49.760;9.664;2022-10-16T07:31:24;7.00;;;3.63;;
2538;SDS011;1280;49.760;9.664;2022-10-16T07:33:52;7.63;;;2.77;;
2538;SDS011;1280;49.760;9.664;2022-10-16T07:36:21;7.57;;;3.03;;
2538;SDS011;1280;49.760;9.664;2022-10-16T07:38:49;6.50;;;4.10;;
2538;SDS011;1280;49.760;9.664;2022-10-16T07:41:22;7.07;;;3.63;;
2538;SDS011;1280;49.760;9.664;2022-10-16T07:43:51;5.97;;;3.00;;
2538;SDS011;1280;49.760;9.664;2022-10-16T07:46:21;6.37;;;3.80;;
2538;SDS011;1280;49.760;9.664;2022-10-16T07:48:51;6.10;;;3.10;;
2538;SDS011;1280;49.760;9.664;2022-10-16T07:51:20;8.60;;;2.97;;
2538;SDS011;1280;49.760;9.664;2022-10-16T07:53:48;5.57;;;2.10;;
2538;SDS011;1280;49.760;9.664;2022-10-16T07:56:17;6.10;;;2.03;;
2538;SDS011;1280;49.760;9.664;2022-10-16T07:58:46;4.77;;;1.83;;
2538;SDS011;1280;49.760;9.664;2022-10-16T08:01:16;4.70;;;1.43;;
2538;SDS011;1280;49.760;9.664;2022-10-16T08:03:45;5.00;;;2.23;;
2538;SDS011;1280;49.760;9.664;2022-10-16T08:06:15;6.93;;;2.90;;
2538;SDS011;1280;49.760;9.664;2022-10-16T08:08:49;6.90;;;2.23;;
2538;SDS011;1280;49.760;9.664;2022-10-16T08:11:17;6.63;;;1.93;;
2538;SDS011;1280;49.760;9.664;2022-10-16T08:13:45;8.13;;;2.13;;
2538;SDS011;1280;49.760;9.664;2022-10-16T08:16:13;5.80;;;1.87;;
2538;SDS011;1280;49.760;9.664;2022-10-16T08:18:41;5.20;;;2.27;;
2538;SDS011;1280;49.760;9.664;2022-10-16T08:21:13;7.50;;;2.10;;
2538;SDS011;1280;49.760;9.664;2022-10-16T08:23:47;7.90;;;2.43;;
2538;SDS011;1280;49.760;9.664;2022-10-16T08:26:23;5.10;;;2.00;;
2538;SDS011;1280;49.760;9.664;2022-10-16T08:28:52;5.83;;;2.10;;
2538;SDS011;1280;49.760;9.664;2022-10-16T08:31:21;5.80;;;2.63;;
2538;SDS011;1280;49.760;9.664;2022-10-16T08:33:49;7.93;;;3.03;;
2538;SDS011;1280;49.760;9.664;2022-10-16T08:36:19;5.03;;;2.03;;
2538;SDS011;1280;49.760;9.664;2022-10-16T08:38:48;4.27;;;1.80;;
2538;SDS011;1280;49.760;9.664;2022-10-16T08:44:31;5.40;;;2.07;;
2538;SDS011;1280;49.760;9.664;2022-10-16T08:47:24;4.00;;;1.80;;
2538;SDS011;1280;49.760;9.664;2022-10-16T08:50:07;6.60;;;2.90;;
2538;SDS011;1280;49.760;9.664;2022-10-16T08:52:41;6.80;;;2.57;;
2538;SDS011;1280;49.760;9.664;2022-10-16T08:55:16;7.33;;;2.13;;
2538;SDS011;1280;49.760;9.664;2022-10-16T08:57:55;7.73;;;2.43;;
2538;SDS011;1280;49.760;9.664;2022-10-16T09:00:23;9.50;;;4.20;;
2538;SDS011;1280;49.760;9.664;2022-10-16T09:02:52;7.23;;;3.27;;
2538;SDS011;1280;49.760;9.664;2022-10-16T09:05:39;10.27;;;3.90;;
2538;SDS011;1280;49.760;9.664;2022-10-16T09:08:28;6.17;;;3.00;;
2538;SDS011;1280;49.760;9.664;2022-10-16T09:11:03;7.47;;;2.30;;
2538;SDS011;1280;49.760;9.664;2022-10-16T09:13:43;5.27;;;2.07;;
2538;SDS011;1280;49.760;9.664;2022-10-16T09:16:18;9.93;;;2.40;;
2538;SDS011;1280;49.760;9.664;2022-10-16T09:18:52;9.33;;;4.20;;
2538;SDS011;1280;49.760;9.664;2022-10-16T09:21:26;8.63;;;3.20;;
2538;SDS011;1280;49.760;9.664;2022-10-16T09:23:58;10.23;;;5.30;;
2538;SDS011;1280;49.760;9.664;2022-10-16T09:26:32;9.80;;;4.03;;
2538;SDS011;1280;49.760;9.664;2022-10-16T09:29:00;7.50;;;3.20;;
2538;SDS011;1280;49.760;9.664;2022-10-16T09:31:28;7.07;;;2.27;;
2538;SDS011;1280;49.760;9.664;2022-10-16T09:33:57;4.80;;;2.20;;
2538;SDS011;1280;49.760;9.664;2022-10-16T09:36:30;4.20;;;1.97;;
2538;SDS011;1280;49.760;9.664;2022-10-16T09:39:09;11.73;;;2.00;;
2538;SDS011;1280;49.760;9.664;2022-10-16T09:41:39;6.33;;;1.67;;
2538;SDS011;1280;49.760;9.664;2022-10-16T09:44:15;6.03;;;2.47;;
2538;SDS011;1280;49.760;9.664;2022-10-16T09:46:48;5.73;;;2.03;;
2538;SDS011;1280;49.760;9.664;2022-10-16T09:49:20;4.63;;;1.93;;
2538;SDS011;1280;49.760;9.664;2022-10-16T09:51:50;4.10;;;1.80;;
2538;SDS011;1280;49.760;9.664;2022-10-16T09:54:21;7.07;;;2.00;;
2538;SDS011;1280;49.760;9.664;2022-10-16T09:56:49;7.47;;;2.47;;
2538;SDS011;1280;49.760;9.664;2022-10-16T09:59:18;4.87;;;2.10;;
2538;SDS011;1280;49.760;9.664;2022-10-16T10:01:50;7.90;;;2.57;;
2538;SDS011;1280;49.760;9.664;2022-10-16T10:04:20;5.60;;;2.33;;
2538;SDS011;1280;49.760;9.664;2022-10-16T10:06:50;5.10;;;2.07;;
2538;SDS011;1280;49.760;9.664;2022-10-16T10:09:22;9.30;;;2.30;;
2538;SDS011;1280;49.760;9.664;2022-10-16T10:11:53;11.77;;;3.43;;
2538;SDS011;1280;49.760;9.664;2022-10-16T10:14:23;7.50;;;2.87;;
2538;SDS011;1280;49.760;9.664;2022-10-16T10:17:01;7.00;;;3.30;;
2538;SDS011;1280;49.760;9.664;2022-10-16T10:19:42;8.17;;;2.80;;
2538;SDS011;1280;49.760;9.664;2022-10-16T10:22:22;7.80;;;3.33;;
2538;SDS011;1280;49.760;9.664;2022-10-16T10:25:07;6.57;;;3.10;;
2538;SDS011;1280;49.760;9.664;2022-10-16T10:30:34;6.03;;;2.30;;
2538;SDS011;1280;49.760;9.664;2022-10-16T10:33:12;6.03;;;2.93;;
2538;SDS011;1280;49.760;9.664;2022-10-16T10:35:50;6.40;;;2.43;;
2538;SDS011;1280;49.760;9.664;2022-10-16T10:38:30;6.43;;;2.37;;
2538;SDS011;1280;49.760;9.664;2022-10-16T10:41:14;6.03;;;2.43;;
2538;SDS011;1280;49.760;9.664;2022-10-16T10:43:56;5.03;;;2.20;;
2538;SDS011;1280;49.760;9.664;2022-10-16T10:46:34;6.83;;;2.50;;
2538;SDS011;1280;49.760;9.664;2022-10-16T10:49:14;8.30;;;2.50;;
2538;SDS011;1280;49.760;9.664;2022-10-16T10:52:02;5.10;;;2.60;;
2538;SDS011;1280;49.760;9.664;2022-10-16T10:54:41;5.00;;;2.00;;
2538;SDS011;1280;49.760;9.664;2022-10-16T10:57:21;5.40;;;2.20;;
2538;SDS011;1280;49.760;9.664;2022-10-16T10:59:58;6.37;;;2.60;;
2538;SDS011;1280;49.760;9.664;2022-10-16T11:02:40;5.60;;;2.43;;
2538;SDS011;1280;49.760;9.664;2022-10-16T11:08:07;12.03;;;3.07;;
2538;SDS011;1280;49.760;9.664;2022-10-16T11:10:44;4.20;;;2.10;;
2538;SDS011;1280;49.760;9.664;2022-10-16T11:13:19;4.97;;;2.40;;
2538;SDS011;1280;49.760;9.664;2022-10-16T11:15:54;10.00;;;3.00;;
2538;SDS011;1280;49.760;9.664;2022-10-16T11:18:27;5.30;;;2.20;;
2538;SDS011;1280;49.760;9.664;2022-10-16T11:21:02;4.67;;;2.20;;
2538;SDS011;1280;49.760;9.664;2022-10-16T11:23:35;5.40;;;1.90;;
2538;SDS011;1280;49.760;9.664;2022-10-16T11:26:10;3.80;;;1.90;;
2538;SDS011;1280;49.760;9.664;2022-10-16T11:28:44;3.90;;;1.80;;
2538;SDS011;1280;49.760;9.664;2022-10-16T11:31:16;5.17;;;1.70;;
2538;SDS011;1280;49.760;9.664;2022-10-16T11:33:47;5.03;;;1.53;;
2538;SDS011;1280;49.760;9.664;2022-10-16T11:36:23;7.07;;;1.70;;
2538;SDS011;1280;49.760;9.664;2022-10-16T11:38:57;3.77;;;1.37;;
2538;SDS011;1280;49.760;9.664;2022-10-16T11:41:31;4.50;;;1.40;;
2538;SDS011;1280;49.760;9.664;2022-10-16T11:44:09;7.37;;;1.43;;
2538;SDS011;1280;49.760;9.664;2022-10-16T11:47:06;4.80;;;1.60;;
2538;SDS011;1280;49.760;9.664;2022-10-16T11:50:04;5.00;;;1.70;;
2538;SDS011;1280;49.760;9.664;2022-10-16T11:52:42;8.43;;;2.30;;
2538;SDS011;1280;49.760;9.664;2022-10-16T11:55:16;3.80;;;1.40;;
2538;SDS011;1280;49.760;9.664;2022-10-16T11:57:47;4.70;;;2.07;;
2538;SDS011;1280;49.760;9.664;2022-10-16T12:00:21;5.57;;;1.87;;
2538;SDS011;1280;49.760;9.664;2022-10-16T12:02:57;5.33;;;2.10;;
2538;SDS011;1280;49.760;9.664;2022-10-16T12:05:33;7.30;;;1.80;;
2538;SDS011;1280;49.760;9.664;2022-10-16T12:08:14;8.67;;;2.53;;
2538;SDS011;1280;49.760;9.664;2022-10-16T12:10:44;5.03;;;1.70;;
2538;SDS011;1280;49.760;9.664;2022-10-16T12:16:19;6.30;;;2.37;;
2538;SDS011;1280;49.760;9.664;2022-10-16T12:18:49;6.07;;;2.17;;
2538;SDS011;1280;49.760;9.664;2022-10-16T12:21:36;6.03;;;2.20;;
2538;SDS011;1280;49.760;9.664;2022-10-16T12:24:05;6.70;;;1.93;;
2538;SDS011;1280;49.760;9.664;2022-10-16T12:26:34;8.90;;;2.07;;
2538;SDS011;1280;49.760;9.664;2022-10-16T12:29:13;4.13;;;1.93;;
2538;SDS011;1280;49.760;9.664;2022-10-16T12:31:50;9.07;;;2.70;;
2538;SDS011;1280;49.760;9.664;2022-10-16T12:34:26;6.30;;;2.57;;
2538;SDS011;1280;49.760;9.664;2022-10-16T12:37:06;4.60;;;2.10;;
2538;SDS011;1280;49.760;9.664;2022-10-16T12:39:37;7.00;;;2.13;;
2538;SDS011;1280;49.760;9.664;2022-10-16T12:42:17;5.63;;;1.83;;
2538;SDS011;1280;49.760;9.664;2022-10-16T12:44:50;6.03;;;2.30;;
2538;SDS011;1280;49.760;9.664;2022-10-16T12:47:21;4.60;;;1.83;;
2538;SDS011;1280;49.760;9.664;2022-10-16T12:49:51;13.97;;;2.10;;
2538;SDS011;1280;49.760;9.664;2022-10-16T12:52:25;7.03;;;2.50;;
2538;SDS011;1280;49.760;9.664;2022-10-16T12:54:55;5.93;;;1.77;;
2538;SDS011;1280;49.760;9.664;2022-10-16T12:57:33;4.63;;;1.93;;
2538;SDS011;1280;49.760;9.664;2022-10-16T13:00:14;4.63;;;1.97;;
2538;SDS011;1280;49.760;9.664;2022-10-16T13:02:57;4.43;;;2.10;;
2538;SDS011;1280;49.760;9.664;2022-10-16T13:05:53;5.53;;;2.10;;
2538;SDS011;1280;49.760;9.664;2022-10-16T13:08:38;9.60;;;3.00;;
2538;SDS011;1280;49.760;9.664;2022-10-16T13:11:17;7.73;;;2.33;;
2538;SDS011;1280;49.760;9.664;2022-10-16T13:14:01;9.53;;;2.20;;
2538;SDS011;1280;49.760;9.664;2022-10-16T13:16:48;4.50;;;1.87;;
2538;SDS011;1280;49.760;9.664;2022-10-16T13:19:28;5.20;;;2.13;;
2538;SDS011;1280;49.760;9.664;2022-10-16T13:22:04;4.87;;;1.87;;
2538;SDS011;1280;49.760;9.664;2022-10-16T13:24:47;4.90;;;2.13;;
2538;SDS011;1280;49.760;9.664;2022-10-16T13:27:27;4.73;;;1.80;;
2538;SDS011;1280;49.760;9.664;2022-10-16T13:30:08;4.43;;;1.60;;
2538;SDS011;1280;49.760;9.664;2022-10-16T13:32:43;8.50;;;1.80;;
2538;SDS011;1280;49.760;9.664;2022-10-16T13:35:22;6.60;;;2.30;;
2538;SDS011;1280;49.760;9.664;2022-10-16T13:38:02;4.80;;;2.00;;
2538;SDS011;1280;49.760;9.664;2022-10-16T13:40:31;5.20;;;2.00;;
2538;SDS011;1280;49.760;9.664;2022-10-16T13:43:00;5.93;;;1.53;;
2538;SDS011;1280;49.760;9.664;2022-10-16T13:45:29;4.00;;;1.70;;
2538;SDS011;1280;49.760;9.664;2022-10-16T13:48:03;5.07;;;1.67;;
2538;SDS011;1280;49.760;9.664;2022-10-16T13:50:33;7.57;;;2.37;;
2538;SDS011;1280;49.760;9.664;2022-10-16T13:53:05;4.43;;;2.30;;
2538;SDS011;1280;49.760;9.664;2022-10-16T13:55:33;5.90;;;2.03;;
2538;SDS011;1280;49.760;9.664;2022-10-16T13:58:05;5.30;;;1.80;;
2538;SDS011;1280;49.760;9.664;2022-10-16T14:00:34;6.00;;;2.27;;
2538;SDS011;1280;49.760;9.664;2022-10-16T14:03:04;7.23;;;2.07;;
2538;SDS011;1280;49.760;9.664;2022-10-16T14:05:36;6.40;;;2.20;;
2538;SDS011;1280;49.760;9.664;2022-10-16T14:08:11;6.93;;;2.50;;
2538;SDS011;1280;49.760;9.664;2022-10-16T14:10:39;4.73;;;1.87;;
2538;SDS011;1280;49.760;9.664;2022-10-16T14:13:13;6.93;;;1.67;;
2538;SDS011;1280;49.760;9.664;2022-10-16T14:15:45;6.23;;;1.97;;
2538;SDS011;1280;49.760;9.664;2022-10-16T14:18:17;4.33;;;1.77;;
2538;SDS011;1280;49.760;9.664;2022-10-16T14:20:50;6.27;;;1.60;;
2538;SDS011;1280;49.760;9.664;2022-10-16T14:23:19;4.00;;;1.60;;
2538;SDS011;1280;49.760;9.664;2022-10-16T14:25:50;6.50;;;2.00;;
2538;SDS011;1280;49.760;9.664;2022-10-16T14:28:18;4.23;;;1.90;;
2538;SDS011;1280;49.760;9.664;2022-10-16T14:30:52;8.30;;;1.80;;
2538;SDS011;1280;49.760;9.664;2022-10-16T14:33:22;5.93;;;2.13;;
2538;SDS011;1280;49.760;9.664;2022-10-16T14:36:01;7.90;;;2.00;;
2538;SDS011;1280;49.760;9.664;2022-10-16T14:38:32;9.33;;;1.93;;
2538;SDS011;1280;49.760;9.664;2022-10-16T14:41:00;9.93;;;1.97;;
2538;SDS011;1280;49.760;9.664;2022-10-16T14:43:31;4.33;;;1.97;;
2538;SDS011;1280;49.760;9.664;2022-10-16T14:46:02;8.53;;;2.20;;
2538;SDS011;1280;49.760;9.664;2022-10-16T14:48:33;4.80;;;2.27;;
2538;SDS011;1280;49.760;9.664;2022-10-16T14:51:02;4.70;;;1.80;;
2538;SDS011;1280;49.760;9.664;2022-10-16T14:53:32;4.37;;;1.80;;
2538;SDS011;1280;49.760;9.664;2022-10-16T14:56:05;4.37;;;1.97;;
2538;SDS011;1280;49.760;9.664;2022-10-16T14:58:34;5.13;;;1.90;;
2538;SDS011;1280;49.760;9.664;2022-10-16T15:01:02;4.83;;;1.90;;
2538;SDS011;1280;49.760;9.664;2022-10-16T15:03:33;5.93;;;1.83;;
2538;SDS011;1280;49.760;9.664;2022-10-16T15:06:02;12.27;;;2.10;;
2538;SDS011;1280;49.760;9.664;2022-10-16T15:08:30;6.40;;;2.30;;
2538;SDS011;1280;49.760;9.664;2022-10-16T15:10:58;4.50;;;2.43;;
2538;SDS011;1280;49.760;9.664;2022-10-16T15:13:26;7.60;;;2.30;;
2538;SDS011;1280;49.760;9.664;2022-10-16T15:15:54;5.17;;;2.20;;
2538;SDS011;1280;49.760;9.664;2022-10-16T15:18:22;5.23;;;2.23;;
2538;SDS011;1280;49.760;9.664;2022-10-16T15:20:51;5.20;;;2.33;;
2538;SDS011;1280;49.760;9.664;2022-10-16T15:23:20;3.83;;;1.90;;
2538;SDS011;1280;49.760;9.664;2022-10-16T15:25:50;3.90;;;2.00;;
2538;SDS011;1280;49.760;9.664;2022-10-16T15:28:20;5.80;;;2.40;;
2538;SDS011;1280;49.760;9.664;2022-10-16T15:30:50;6.03;;;2.27;;
2538;SDS011;1280;49.760;9.664;2022-10-16T15:33:19;4.87;;;2.20;;
2538;SDS011;1280;49.760;9.664;2022-10-16T15:35:49;5.50;;;1.83;;
2538;SDS011;1280;49.760;9.664;2022-10-16T15:38:19;4.33;;;2.10;;
2538;SDS011;1280;49.760;9.664;2022-10-16T15:40:49;8.40;;;4.87;;
2538;SDS011;1280;49.760;9.664;2022-10-16T15:43:18;6.10;;;3.90;;
2538;SDS011;1280;49.760;9.664;2022-10-16T15:45:46;11.73;;;6.90;;
2538;SDS011;1280;49.760;9.664;2022-10-16T15:48:27;25.90;;;15.20;;
2538;SDS011;1280;49.760;9.664;2022-10-16T15:50:55;19.67;;;11.77;;
2538;SDS011;1280;49.760;9.664;2022-10-16T15:53:25;21.13;;;13.13;;
2538;SDS011;1280;49.760;9.664;2022-10-16T15:55:53;16.13;;;11.80;;